| Date | Time | Temp. (oF) | Dew Point (oF) | Rel. Hum. (%) | Press. (in.) | Wind Dir. | Wind Speed (mph) | Hourly Rainfall (in.) |
|
|---|---|---|---|---|---|---|---|---|---|
| 1 | 07/03 | 00:00 | 66 | 62 | 87 | 29.85 | WSW | 3 | 0.00 |
| 2 | 07/02 | 23:00 | 67 | 62 | 87 | 29.85 | SW | 2 | 0.00 |
| 3 | 07/02 | 22:00 | 68 | 63 | 85 | 29.83 | NW | 3 | 0.00 |
| 4 | 07/02 | 21:00 | 70 | 62 | 77 | 29.82 | NW | 3 | 0.00 |
| 5 | 07/02 | 20:00 | 75 | 63 | 67 | 29.79 | W | 4 | 0.00 |
| 6 | 07/02 | 19:00 | 76 | 62 | 64 | 29.77 | NNW | 4 | 0.00 |
| 7 | 07/02 | 18:00 | 77 | 61 | 60 | 29.75 | WSW | 4 | 0.00 |
| 8 | 07/02 | 17:00 | 79 | 61 | 56 | 29.75 | NNW | 6 | 0.00 |
| 9 | 07/02 | 16:00 | 80 | 64 | 60 | 29.76 | WSW | 5 | 0.00 |
| 10 | 07/02 | 15:00 | 76 | 62 | 64 | 29.77 | WSW | 3 | 0.00 |
| 11 | 07/02 | 14:00 | 75 | 66 | 74 | 29.77 | WSW | 4 | 0.01 |
| 12 | 07/02 | 13:00 | 76 | 64 | 67 | 29.78 | WNW | 4 | 0.00 |
| 13 | 07/02 | 12:00 | 76 | 66 | 72 | 29.78 | N | 4 | 0.00 |
| 14 | 07/02 | 11:00 | 74 | 67 | 80 | 29.78 | W | 2 | 0.00 |
| 15 | 07/02 | 10:00 | 70 | 67 | 91 | 29.78 | WNW | 0 | 0.00 |
| 16 | 07/02 | 09:00 | 67 | 65 | 96 | 29.77 | NW | 0 | 0.00 |
| 17 | 07/02 | 08:00 | 67 | 65 | 96 | 29.76 | NNW | 0 | 0.00 |
| 18 | 07/02 | 07:00 | 66 | 66 | 100 | 29.74 | NW | 0 | 0.00 |
| 19 | 07/02 | 06:00 | 65 | 64 | 100 | 29.74 | WNW | 0 | 0.00 |
| 20 | 07/02 | 05:00 | 66 | 66 | 100 | 29.72 | NNW | 0 | 0.00 |
| 21 | 07/02 | 04:00 | 66 | 66 | 100 | 29.72 | SW | 0 | 0.00 |
| 22 | 07/02 | 03:00 | 66 | 66 | 100 | 29.72 | SE | 0 | 0.00 |
| 23 | 07/02 | 02:00 | 66 | 65 | 99 | 29.72 | ESE | 0 | 0.04 |
| 24 | 07/02 | 01:00 | 65 | 64 | 99 | 29.73 | SE | 0 | 0.02 |